createdAt,value
2019-02-15T00:01:30.652Z,7.69
2019-02-15T00:06:32.781Z,7.73
2019-02-15T00:11:34.883Z,7.73
2019-02-15T00:16:37.011Z,7.76
2019-02-15T00:21:47.157Z,7.76
2019-02-15T00:26:49.417Z,7.52
2019-02-15T00:31:51.514Z,7.45
2019-02-15T00:36:53.599Z,7.49
2019-02-15T00:41:55.864Z,7.40
2019-02-15T00:47:17.601Z,7.37
2019-02-15T00:52:45.071Z,7.43
2019-02-15T00:57:54.388Z,7.43
2019-02-15T01:03:23.778Z,7.30
2019-02-15T01:08:45.459Z,7.27
2019-02-15T01:13:47.592Z,7.28
2019-02-15T01:18:49.759Z,7.21
2019-02-15T01:23:52.003Z,7.26
2019-02-15T01:29:16.201Z,7.10
2019-02-15T01:34:29.338Z,6.98
2019-02-15T01:39:51.034Z,6.93
2019-02-15T01:45:18.759Z,6.96
2019-02-15T01:50:20.948Z,6.88
2019-02-15T01:55:22.993Z,6.88
2019-02-15T02:00:28.369Z,6.85
2019-02-15T02:05:30.452Z,6.94
2019-02-15T02:10:35.308Z,6.90
2019-02-15T02:15:37.356Z,6.91
2019-02-15T02:20:39.568Z,6.84
2019-02-15T02:25:41.622Z,6.87
2019-02-15T02:30:43.695Z,6.82
2019-02-15T02:35:46.007Z,6.79
2019-02-15T02:40:48.095Z,6.72
2019-02-15T02:45:50.112Z,6.71
2019-02-15T02:50:52.207Z,6.67
2019-02-15T02:55:54.260Z,6.58
2019-02-15T03:00:56.370Z,6.66
2019-02-15T03:05:58.413Z,6.66
2019-02-15T03:11:00.522Z,6.62
2019-02-15T03:16:02.544Z,6.61
2019-02-15T03:21:04.677Z,6.54
2019-02-15T03:26:06.741Z,6.38
2019-02-15T03:31:08.838Z,6.25
2019-02-15T03:36:16.977Z,6.29
2019-02-15T03:41:29.350Z,6.30
2019-02-15T03:46:31.479Z,6.27
2019-02-15T03:51:33.547Z,6.11
2019-02-15T03:56:35.607Z,6.03
2019-02-15T04:01:37.654Z,5.98
2019-02-15T04:06:39.715Z,5.98
2019-02-15T04:11:41.902Z,6.13
2019-02-15T04:16:44.172Z,6.23
2019-02-15T04:21:46.261Z,6.17
2019-02-15T04:26:48.346Z,6.08
2019-02-15T04:31:50.424Z,6.11
2019-02-15T04:36:52.529Z,5.98
2019-02-15T04:41:55.718Z,5.93
2019-02-15T04:46:57.796Z,5.86
2019-02-15T04:52:02.951Z,5.82
2019-02-15T04:57:06.303Z,5.87
2019-02-15T05:02:08.432Z,5.74
2019-02-15T05:07:12.750Z,5.71
2019-02-15T05:12:16.732Z,5.74
2019-02-15T05:17:18.888Z,5.72
2019-02-15T05:22:21.089Z,5.76
2019-02-15T05:27:23.152Z,5.86
2019-02-15T05:32:25.246Z,5.87
2019-02-15T05:37:27.519Z,5.83
2019-02-15T05:42:29.597Z,5.92
2019-02-15T05:47:31.660Z,5.83
2019-02-15T05:52:33.794Z,5.92
2019-02-15T05:57:35.898Z,5.94
2019-02-15T06:02:38.102Z,5.97
2019-02-15T06:07:40.256Z,5.90
2019-02-15T06:12:42.321Z,5.85
2019-02-15T06:17:44.416Z,5.70
2019-02-15T06:22:46.509Z,5.67
2019-02-15T06:27:49.217Z,5.66
2019-02-15T06:32:51.623Z,5.73
2019-02-15T06:37:59.297Z,5.82
2019-02-15T06:43:01.371Z,5.67
2019-02-15T06:48:03.512Z,5.75
2019-02-15T06:53:05.537Z,5.74
2019-02-15T06:58:07.568Z,5.73
2019-02-15T07:03:16.914Z,5.75
2019-02-15T07:08:19.001Z,5.68
2019-02-15T07:13:21.039Z,5.78
2019-02-15T07:18:23.128Z,5.84
2019-02-15T07:23:25.323Z,5.79
2019-02-15T07:28:27.397Z,5.95
2019-02-15T07:33:29.461Z,6.13
2019-02-15T07:38:31.790Z,6.22
2019-02-15T07:43:33.853Z,6.43
2019-02-15T07:48:35.969Z,6.60
2019-02-15T07:53:38.132Z,6.73
2019-02-15T07:58:40.213Z,7.06
2019-02-15T08:03:42.320Z,7.64
2019-02-15T08:08:44.384Z,8.24
2019-02-15T08:13:46.520Z,8.76
2019-02-15T08:18:48.723Z,9.21
2019-02-15T08:23:50.833Z,9.65
2019-02-15T08:28:55.333Z,9.96
2019-02-15T08:33:57.492Z,10.22
2019-02-15T08:38:59.590Z,10.49
2019-02-15T08:44:01.665Z,10.88
2019-02-15T08:49:03.798Z,11.00
2019-02-15T08:54:05.855Z,11.13
2019-02-15T08:59:07.943Z,11.45
2019-02-15T09:04:10.051Z,11.54
2019-02-15T09:09:12.175Z,11.80
2019-02-15T09:14:14.277Z,12.04
2019-02-15T09:19:16.670Z,12.40
2019-02-15T09:24:18.790Z,12.60
2019-02-15T09:29:20.862Z,12.59
2019-02-15T09:34:22.990Z,12.71
2019-02-15T09:39:25.035Z,12.98
2019-02-15T09:44:27.094Z,13.06
2019-02-15T09:49:29.149Z,13.24
2019-02-15T09:54:31.175Z,13.35
2019-02-15T09:59:33.242Z,13.48
2019-02-15T10:04:35.330Z,13.42
2019-02-15T10:09:37.353Z,13.68
2019-02-15T10:14:39.385Z,13.76
2019-02-15T10:19:41.548Z,13.87
2019-02-15T10:24:43.601Z,13.92
2019-02-15T10:29:45.670Z,13.92
2019-02-15T10:34:47.751Z,13.86
2019-02-15T10:39:49.804Z,14.10
2019-02-15T10:44:51.989Z,14.20
2019-02-15T10:49:54.058Z,14.29
2019-02-15T10:54:56.121Z,14.03
2019-02-15T10:59:58.227Z,14.05
2019-02-15T11:05:00.338Z,14.06
2019-02-15T11:10:02.482Z,14.21
2019-02-15T11:15:05.454Z,14.27
2019-02-15T11:20:08.802Z,14.23
2019-02-15T11:25:10.963Z,14.35
2019-02-15T11:30:13.330Z,14.40
2019-02-15T11:35:15.431Z,14.43
2019-02-15T11:40:17.479Z,14.61
2019-02-15T11:45:22.130Z,14.78
2019-02-15T11:50:24.270Z,14.87
2019-02-15T11:55:26.342Z,15.06
2019-02-15T12:00:31.656Z,15.26
2019-02-15T12:05:36.318Z,15.36
2019-02-15T12:10:38.494Z,15.52
2019-02-15T12:15:40.535Z,15.63
2019-02-15T12:20:42.697Z,15.71
2019-02-15T12:25:44.743Z,15.68
2019-02-15T12:30:46.908Z,15.81
2019-02-15T12:35:49.120Z,15.81
2019-02-15T12:40:53.650Z,15.88
2019-02-15T12:45:55.747Z,16.00
2019-02-15T12:50:58.128Z,16.09
2019-02-15T12:56:00.174Z,16.14
2019-02-15T13:01:02.286Z,16.14
2019-02-15T13:06:04.362Z,16.06
2019-02-15T13:11:06.741Z,16.11
2019-02-15T13:16:08.768Z,16.20
2019-02-15T13:21:10.901Z,16.07
2019-02-15T13:26:12.988Z,16.16
2019-02-15T13:31:15.033Z,16.16
2019-02-15T13:36:17.715Z,16.19
2019-02-15T13:41:22.140Z,16.16
2019-02-15T13:46:29.521Z,16.24
2019-02-15T13:51:34.492Z,16.25
2019-02-15T13:56:36.636Z,16.23
2019-02-15T14:01:40.575Z,16.20
2019-02-15T14:06:47.101Z,16.57
2019-02-15T14:11:49.221Z,17.06
2019-02-15T14:16:51.294Z,17.40
2019-02-15T14:21:53.432Z,17.63
2019-02-15T14:26:56.783Z,17.76
2019-02-15T14:31:59.334Z,17.84
2019-02-15T14:37:01.431Z,17.67
2019-02-15T14:42:03.555Z,17.65
2019-02-15T14:47:08.763Z,17.73
2019-02-15T14:52:12.190Z,17.79
2019-02-15T14:57:14.395Z,17.85
2019-02-15T15:02:16.676Z,17.90
2019-02-15T15:07:18.936Z,17.92
2019-02-15T15:12:21.262Z,17.91
2019-02-15T15:17:23.522Z,17.89
2019-02-15T15:22:25.736Z,17.78
2019-02-15T15:27:30.334Z,17.70
2019-02-15T15:32:32.797Z,17.60
2019-02-15T15:37:35.102Z,17.44
2019-02-15T15:42:38.522Z,17.47
2019-02-15T15:47:40.850Z,17.52
2019-02-15T15:52:43.222Z,17.54
2019-02-15T15:57:45.433Z,17.51
2019-02-15T16:02:47.726Z,17.52
2019-02-15T16:07:52.649Z,17.49
2019-02-15T16:12:54.910Z,17.47
2019-02-15T16:17:57.138Z,17.43
2019-02-15T16:22:59.674Z,17.37
2019-02-15T16:28:04.575Z,17.33
2019-02-15T16:33:07.146Z,17.26
2019-02-15T16:38:09.788Z,17.25
2019-02-15T16:43:16.261Z,17.23
2019-02-15T16:48:18.392Z,16.83
2019-02-15T16:53:20.668Z,16.09
2019-02-15T16:58:22.922Z,15.49
2019-02-15T17:03:26.208Z,14.96
2019-02-15T17:08:34.637Z,14.52
2019-02-15T17:13:38.167Z,14.22
2019-02-15T17:18:51.653Z,13.98
2019-02-15T17:23:47.508Z,13.81
2019-02-15T17:28:51.988Z,13.57
2019-02-15T17:33:56.827Z,13.37
2019-02-15T17:39:00.193Z,13.16
2019-02-15T17:44:02.314Z,12.95
2019-02-15T17:49:04.732Z,12.78
2019-02-15T17:54:06.953Z,12.63
2019-02-15T17:59:09.190Z,12.49
2019-02-15T18:04:11.468Z,12.36
2019-02-15T18:09:17.812Z,12.23
2019-02-15T18:14:21.469Z,12.12
2019-02-15T18:19:25.707Z,11.98
2019-02-15T18:24:28.236Z,11.87
2019-02-15T18:29:32.474Z,11.75
2019-02-15T18:34:34.777Z,11.67
2019-02-15T18:39:37.089Z,11.57
2019-02-15T18:44:43.414Z,11.51
2019-02-15T18:49:47.728Z,11.40
2019-02-15T18:54:49.911Z,11.31
2019-02-15T18:59:52.133Z,11.22
2019-02-15T19:04:55.247Z,11.15
2019-02-15T19:09:57.422Z,11.08
2019-02-15T19:15:00.808Z,11.03
2019-02-15T19:20:05.764Z,10.95
2019-02-15T19:25:09.528Z,10.88
2019-02-15T19:30:16.124Z,10.82
2019-02-15T19:35:20.189Z,10.78
2019-02-15T19:40:22.486Z,10.71
2019-02-15T19:45:24.698Z,10.65
2019-02-15T19:50:26.887Z,10.57
2019-02-15T19:55:29.135Z,10.50
2019-02-15T20:00:31.399Z,10.46
2019-02-15T20:05:33.620Z,10.39
2019-02-15T20:10:37.772Z,10.33
2019-02-15T20:15:44.243Z,10.26
2019-02-15T20:20:46.612Z,10.20
2019-02-15T20:25:49.001Z,10.14
2019-02-15T20:30:51.223Z,10.08
2019-02-15T20:35:53.564Z,10.02
2019-02-15T20:40:57.624Z,9.98
2019-02-15T20:46:12.977Z,9.96
2019-02-15T20:51:15.251Z,9.90
2019-02-15T20:56:17.468Z,9.87
2019-02-15T21:01:19.704Z,9.84
2019-02-15T21:06:22.062Z,9.79
2019-02-15T21:11:24.412Z,9.75
2019-02-15T21:16:26.538Z,9.69
2019-02-15T21:21:30.304Z,9.62
2019-02-15T21:26:34.388Z,9.63
2019-02-15T21:31:36.644Z,9.76
2019-02-15T21:36:44.454Z,9.85
2019-02-15T21:41:46.968Z,9.98
2019-02-15T21:46:51.990Z,10.01
2019-02-15T21:51:55.957Z,10.10
2019-02-15T21:57:00.843Z,10.05
2019-02-15T22:02:06.379Z,9.99
2019-02-15T22:07:08.603Z,9.90
2019-02-15T22:12:12.616Z,9.81
2019-02-15T22:17:14.829Z,9.77
2019-02-15T22:22:21.303Z,9.73
2019-02-15T22:27:23.494Z,9.73
2019-02-15T22:32:29.607Z,9.75
2019-02-15T22:37:31.797Z,9.68
2019-02-15T22:42:35.949Z,9.64
2019-02-15T22:47:38.127Z,9.56
2019-02-15T22:52:42.178Z,9.56
2019-02-15T22:57:44.351Z,9.56
2019-02-15T23:02:48.425Z,9.50
2019-02-15T23:07:53.296Z,9.44
2019-02-15T23:12:57.526Z,9.28
2019-02-15T23:18:00.063Z,9.27
2019-02-15T23:23:04.386Z,9.24
2019-02-15T23:28:06.746Z,9.31
2019-02-15T23:33:08.871Z,9.33
2019-02-15T23:38:11.143Z,9.38
2019-02-15T23:43:13.397Z,9.31
2019-02-15T23:48:15.525Z,9.36
2019-02-15T23:53:17.843Z,9.38
2019-02-15T23:58:20.089Z,9.34
